Saint-Jerome, Canada
Current Conditions -  °F | °C
As of 3:00 AM on Sunday 21 Dec 2014 (Local Time) from CYMX Reporting Station
Haze Haze  
Wind Chill: 12°   Ceiling: 900
Heat Index: 12°   Visibility: 5mi
Dew Point:   Wind: 3mph
Humidity: 85%   Direction: 40°NE
Pressure: 30.36"   Gusts: NA
Location:  45.77°N, 74°W
Report Text: CYMX 210800Z 04003KT 360V070 5SM BR FEW003 SCT006 OVC009 M11/M13 A3036 RMK SF1SF3SF4 SLP289
Loading
Personal Weather Stations






























Interactive Weather Map New forecast layout! Learn more

10-Day Weather Forecast

Advertisements
Track Severe Weather on mobile